createdAt,value
2022-11-29T00:02:23.094Z,11.23
2022-11-29T00:07:19.565Z,11.21
2022-11-29T00:12:16.079Z,11.21
2022-11-29T00:17:12.638Z,11.22
2022-11-29T00:22:09.175Z,11.18
2022-11-29T00:27:05.744Z,11.18
2022-11-29T00:32:02.273Z,11.18
2022-11-29T00:36:58.823Z,11.18
2022-11-29T00:41:55.382Z,11.19
2022-11-29T00:46:51.912Z,11.16
2022-11-29T00:51:48.499Z,11.13
2022-11-29T00:56:45.072Z,11.12
2022-11-29T01:04:09.860Z,11.11
2022-11-29T01:06:38.122Z,11.1
2022-11-29T01:14:02.983Z,11.2
2022-11-29T01:16:31.348Z,11.31
2022-11-29T01:21:27.827Z,11.34
2022-11-29T01:26:24.383Z,11.34
2022-11-29T01:28:52.641Z,11.34
2022-11-29T01:33:49.180Z,11.32
2022-11-29T01:42:36.735Z,11.3
2022-11-29T01:47:33.306Z,11.26
2022-11-29T01:52:29.820Z,11.26
2022-11-29T01:57:26.425Z,11.26
2022-11-29T02:02:22.994Z,11.25
2022-11-29T02:09:47.808Z,11.22
2022-11-29T02:12:16.058Z,11.21
2022-11-29T02:17:12.628Z,11.22
2022-11-29T02:22:09.151Z,11.21
2022-11-29T02:27:05.696Z,11.17
2022-11-29T02:29:33.972Z,11.18
2022-11-29T02:34:30.541Z,11.18
2022-11-29T02:43:18.100Z,11.31
2022-11-29T02:48:14.655Z,11.39
2022-11-29T02:53:11.167Z,11.43
2022-11-29T02:58:07.773Z,11.46
2022-11-29T03:03:04.285Z,11.44
2022-11-29T03:08:00.932Z,11.42
2022-11-29T03:12:57.434Z,11.38
2022-11-29T03:17:53.933Z,11.37
2022-11-29T03:22:50.487Z,11.33
2022-11-29T03:26:20.128Z,11.3
2022-11-29T03:29:01.459Z,11.29
2022-11-29T03:34:08.566Z,11.26
2022-11-29T03:37:01.463Z,11.23
2022-11-29T03:39:01.602Z,11.22
2022-11-29T03:42:01.784Z,11.21
2022-11-29T03:45:01.726Z,11.2
2022-11-29T03:49:01.996Z,11.18
2022-11-29T03:53:01.404Z,11.18
2022-11-29T03:55:01.572Z,11.17
2022-11-29T03:57:08.667Z,11.17
2022-11-29T04:00:00.496Z,11.18
2022-11-29T04:02:01.433Z,11.17
2022-11-29T04:05:01.438Z,11.17
2022-11-29T04:08:02.033Z,11.16
2022-11-29T04:11:01.582Z,11.17
2022-11-29T04:14:01.584Z,11.15
2022-11-29T04:17:01.452Z,11.18
2022-11-29T04:20:08.051Z,11.22
2022-11-29T04:22:08.019Z,11.26
2022-11-29T04:25:02.043Z,11.31
2022-11-29T04:28:01.574Z,11.34
2022-11-29T04:31:01.474Z,11.36
2022-11-29T04:34:01.613Z,11.39
2022-11-29T04:37:01.897Z,11.39
2022-11-29T04:39:01.983Z,11.4
2022-11-29T04:42:01.412Z,11.39
2022-11-29T04:44:01.639Z,11.38
2022-11-29T04:47:01.444Z,11.39
2022-11-29T04:50:01.434Z,11.4
2022-11-29T04:52:01.440Z,11.39
2022-11-29T04:54:01.486Z,11.39
2022-11-29T04:56:01.663Z,11.38
2022-11-29T05:00:08.807Z,11.36
2022-11-29T05:04:01.856Z,11.34
2022-11-29T05:07:01.475Z,11.33
2022-11-29T05:09:01.808Z,11.32
2022-11-29T05:12:01.506Z,11.3
2022-11-29T05:14:01.443Z,11.28
2022-11-29T05:17:01.422Z,11.28
2022-11-29T05:19:01.425Z,11.28
2022-11-29T05:22:01.426Z,11.29
2022-11-29T05:24:01.539Z,11.3
2022-11-29T05:26:01.936Z,11.31
2022-11-29T05:29:01.430Z,11.3
2022-11-29T05:31:01.460Z,11.3
2022-11-29T05:34:01.711Z,11.3
2022-11-29T05:37:01.464Z,11.27
2022-11-29T05:40:01.446Z,11.27
2022-11-29T05:42:01.435Z,11.26
2022-11-29T05:45:01.429Z,11.26
2022-11-29T05:47:02.070Z,11.25
2022-11-29T05:50:01.440Z,11.23
2022-11-29T05:52:02.261Z,11.27
2022-11-29T05:55:01.442Z,11.33
2022-11-29T05:57:01.484Z,11.36
2022-11-29T06:00:01.437Z,11.4
2022-11-29T06:02:01.819Z,11.43
2022-11-29T06:04:02.172Z,11.43
2022-11-29T06:07:01.775Z,11.43
2022-11-29T06:10:01.766Z,11.43
2022-11-29T06:13:01.473Z,11.44
2022-11-29T06:16:01.514Z,11.42
2022-11-29T06:18:02.369Z,11.42
2022-11-29T06:21:01.936Z,11.42
2022-11-29T06:24:01.444Z,11.41
2022-11-29T06:26:03.979Z,11.41
2022-11-29T06:28:01.985Z,11.4
2022-11-29T06:31:01.477Z,11.4
2022-11-29T06:33:01.412Z,11.38
2022-11-29T06:35:02.233Z,11.37
2022-11-29T06:38:01.418Z,11.34
2022-11-29T06:40:01.505Z,11.32
2022-11-29T06:44:01.436Z,11.29
2022-11-29T06:48:01.807Z,11.26
2022-11-29T06:50:01.925Z,11.25
2022-11-29T06:53:01.910Z,11.27
2022-11-29T06:56:01.934Z,11.26
2022-11-29T06:58:02.218Z,11.26
2022-11-29T07:01:01.450Z,11.26
2022-11-29T07:03:02.155Z,11.26
2022-11-29T07:06:01.400Z,11.26
2022-11-29T07:10:13.524Z,11.26
2022-11-29T07:14:08.067Z,11.25
2022-11-29T07:17:21.167Z,11.21
2022-11-29T07:20:08.029Z,11.21
2022-11-29T07:23:01.442Z,11.23
2022-11-29T07:25:01.915Z,11.22
2022-11-29T07:28:01.436Z,11.21
2022-11-29T07:30:01.415Z,11.21
2022-11-29T07:33:02.101Z,11.22
2022-11-29T07:36:01.444Z,11.22
2022-11-29T07:38:01.906Z,11.2
2022-11-29T07:41:01.415Z,11.22
2022-11-29T07:43:01.464Z,11.22
2022-11-29T07:45:01.572Z,11.24
2022-11-29T07:47:01.737Z,11.24
2022-11-29T07:50:01.412Z,11.23
2022-11-29T07:53:01.500Z,11.24
2022-11-29T07:55:01.781Z,11.26
2022-11-29T07:57:01.793Z,11.28
2022-11-29T08:00:01.341Z,11.32
2022-11-29T08:02:02.201Z,11.34
2022-11-29T08:05:01.451Z,11.39
2022-11-29T08:07:01.441Z,11.43
2022-11-29T08:09:01.968Z,11.46
2022-11-29T08:13:01.890Z,11.48
2022-11-29T08:16:01.480Z,11.5
2022-11-29T08:19:01.415Z,11.52
2022-11-29T08:22:01.430Z,11.51
2022-11-29T08:25:02.346Z,11.51
2022-11-29T08:28:01.443Z,11.5
2022-11-29T08:30:01.675Z,11.5
2022-11-29T08:33:01.720Z,11.5
2022-11-29T08:35:02.089Z,11.5
2022-11-29T08:38:01.437Z,11.51
2022-11-29T08:40:02.336Z,11.5
2022-11-29T08:44:01.791Z,11.51
2022-11-29T08:47:08.093Z,11.5
2022-11-29T08:49:08.779Z,11.51
2022-11-29T08:52:01.636Z,11.52
2022-11-29T08:54:01.662Z,11.53
2022-11-29T08:57:38.325Z,11.53
2022-11-29T08:59:01.698Z,11.54
2022-11-29T09:01:02.198Z,11.55
2022-11-29T09:03:02.175Z,11.54
2022-11-29T09:06:01.415Z,11.53
2022-11-29T09:08:01.456Z,11.54
2022-11-29T09:10:08.029Z,11.54
2022-11-29T09:12:08.650Z,11.56
2022-11-29T09:15:01.426Z,11.55
2022-11-29T09:18:01.431Z,11.54
2022-11-29T09:20:02.155Z,11.54
2022-11-29T09:23:02.010Z,11.54
2022-11-29T09:26:01.442Z,11.57
2022-11-29T09:29:01.771Z,11.6
2022-11-29T09:32:01.551Z,11.62
2022-11-29T09:34:02.009Z,11.62
2022-11-29T09:37:01.463Z,11.64
2022-11-29T09:39:01.469Z,11.65
2022-11-29T09:41:01.533Z,11.66
2022-11-29T09:43:01.812Z,11.66
2022-11-29T09:46:02.067Z,11.69
2022-11-29T09:49:01.460Z,11.71
2022-11-29T09:51:01.489Z,11.71
2022-11-29T09:54:01.426Z,11.73
2022-11-29T09:56:01.447Z,11.73
2022-11-29T09:58:02.119Z,11.71
2022-11-29T10:01:01.489Z,11.67
2022-11-29T10:03:01.971Z,11.66
2022-11-29T10:06:01.418Z,11.67
2022-11-29T10:08:01.500Z,11.7
2022-11-29T10:10:01.810Z,11.71
2022-11-29T10:13:02.077Z,11.71
2022-11-29T10:16:01.681Z,11.67
2022-11-29T10:18:02.071Z,11.67
2022-11-29T10:21:01.414Z,11.66
2022-11-29T10:23:01.761Z,11.68
2022-11-29T10:26:01.661Z,11.72
2022-11-29T10:30:01.463Z,11.77
2022-11-29T10:33:08.237Z,11.77
2022-11-29T10:35:08.700Z,11.8
2022-11-29T10:38:30.123Z,11.8
2022-11-29T10:41:01.423Z,11.82
2022-11-29T10:43:02.247Z,11.83
2022-11-29T10:46:02.051Z,11.85
2022-11-29T10:49:01.752Z,11.83
2022-11-29T10:53:01.825Z,11.9
2022-11-29T10:56:01.830Z,11.92
2022-11-29T10:59:02.124Z,11.94
2022-11-29T11:02:01.683Z,11.94
2022-11-29T11:05:01.430Z,11.96
2022-11-29T11:07:01.624Z,11.96
2022-11-29T11:10:01.415Z,11.97
2022-11-29T11:12:01.443Z,11.98
2022-11-29T11:15:01.415Z,11.98
2022-11-29T11:18:08.275Z,12
2022-11-29T11:20:08.870Z,12
2022-11-29T11:22:14.614Z,12.02
2022-11-29T11:25:14.822Z,12.02
2022-11-29T11:28:01.461Z,12.04
2022-11-29T11:31:01.552Z,12.02
2022-11-29T11:33:01.482Z,12.03
2022-11-29T11:36:01.631Z,12.04
2022-11-29T11:39:01.460Z,12.03
2022-11-29T11:42:01.472Z,12.04
2022-11-29T11:44:04.492Z,12.05
2022-11-29T11:46:08.342Z,12.05
2022-11-29T11:49:07.112Z,12.05
2022-11-29T11:52:01.518Z,12.05
2022-11-29T11:56:00.500Z,12.06
2022-11-29T11:58:10.060Z,12.05
2022-11-29T12:01:04.595Z,12.06
2022-11-29T12:03:02.269Z,12.06
2022-11-29T12:06:01.952Z,12.06
2022-11-29T12:09:01.461Z,12.05
2022-11-29T12:11:06.966Z,12.06
2022-11-29T12:14:01.833Z,12.05
2022-11-29T12:18:01.434Z,12.04
2022-11-29T12:20:08.139Z,12.05
2022-11-29T12:22:08.627Z,12.04
2022-11-29T12:25:01.752Z,12.03
2022-11-29T12:28:01.445Z,12.04
2022-11-29T12:30:15.531Z,12.03
2022-11-29T12:33:01.464Z,12.03
2022-11-29T12:35:01.994Z,12.05
2022-11-29T12:38:01.455Z,12.05
2022-11-29T12:40:01.650Z,12.04
2022-11-29T12:43:01.877Z,12.04
2022-11-29T12:47:28.080Z,12.04
2022-11-29T12:49:08.050Z,12.05
2022-11-29T12:52:01.439Z,12.05
2022-11-29T12:54:01.615Z,12.06
2022-11-29T12:58:01.449Z,12.05
2022-11-29T13:01:08.837Z,12.06
2022-11-29T13:04:01.796Z,12.06
2022-11-29T13:07:01.440Z,12.06
2022-11-29T13:10:01.502Z,12.07
2022-11-29T13:15:08.557Z,12.07
2022-11-29T13:18:01.466Z,12.08
2022-11-29T13:21:02.303Z,12.08
2022-11-29T13:24:08.987Z,12.08
2022-11-29T13:26:01.944Z,12.08
2022-11-29T13:29:02.296Z,12.07
2022-11-29T13:32:01.501Z,12.06
2022-11-29T13:34:01.548Z,12.06
2022-11-29T13:36:01.802Z,12.05
2022-11-29T13:38:02.139Z,12.05
2022-11-29T13:43:08.813Z,12.06
2022-11-29T13:47:01.434Z,12.07
2022-11-29T13:51:01.799Z,12.08
2022-11-29T13:54:08.067Z,12.08
2022-11-29T13:56:15.279Z,12.08
2022-11-29T13:59:01.446Z,12.1
2022-11-29T14:01:01.505Z,12.09
2022-11-29T14:03:01.949Z,12.1
2022-11-29T14:06:01.446Z,12.11
2022-11-29T14:08:02.215Z,12.1
2022-11-29T14:11:01.446Z,12.1
2022-11-29T14:13:01.838Z,12.11
2022-11-29T14:16:01.503Z,12.12
2022-11-29T14:18:01.453Z,12.11
2022-11-29T14:21:01.936Z,12.11
2022-11-29T14:24:01.541Z,12.11
2022-11-29T14:27:01.452Z,12.11
2022-11-29T14:29:02.032Z,12.1
2022-11-29T14:31:08.093Z,12.1
2022-11-29T14:33:08.719Z,12.1
2022-11-29T14:36:01.611Z,12.11
2022-11-29T14:38:02.084Z,12.09
2022-11-29T14:41:01.427Z,12.1
2022-11-29T14:45:01.501Z,12.09
2022-11-29T14:47:01.508Z,12.11
2022-11-29T14:49:01.500Z,12.1
2022-11-29T14:52:01.572Z,12.09
2022-11-29T14:55:01.451Z,12.08
2022-11-29T14:58:01.639Z,12.03
2022-11-29T15:01:05.106Z,12.04
2022-11-29T15:03:01.974Z,12.04
2022-11-29T15:06:01.420Z,12.05
2022-11-29T15:08:01.483Z,12.03
2022-11-29T15:11:02.313Z,11.92
2022-11-29T15:14:01.728Z,11.94
2022-11-29T15:18:01.458Z,11.98
2022-11-29T15:21:01.479Z,11.96
2022-11-29T15:23:01.497Z,11.96
2022-11-29T15:26:01.935Z,11.98
2022-11-29T15:29:01.548Z,11.98
2022-11-29T15:31:02.228Z,12
2022-11-29T15:34:10.571Z,12.01
2022-11-29T15:37:08.047Z,12.04
2022-11-29T15:40:01.761Z,12.05
2022-11-29T15:43:01.471Z,12.06
2022-11-29T15:46:01.514Z,12.06
2022-11-29T15:48:08.944Z,12.06
2022-11-29T15:51:02.211Z,12.05
2022-11-29T15:54:12.035Z,12.03
2022-11-29T15:56:01.474Z,12.03
2022-11-29T15:58:05.490Z,12.03
2022-11-29T16:01:01.785Z,12.02
2022-11-29T16:03:02.350Z,12.02
2022-11-29T16:06:01.413Z,12.02
2022-11-29T16:08:01.561Z,12.02
2022-11-29T16:11:01.466Z,12.02
2022-11-29T16:13:01.964Z,12.01
2022-11-29T16:16:01.476Z,12.01
2022-11-29T16:18:01.949Z,12.02
2022-11-29T16:21:00.642Z,12.01
2022-11-29T16:23:01.448Z,12.01
2022-11-29T16:25:01.435Z,12.01
2022-11-29T16:28:01.832Z,12.02
2022-11-29T16:32:02.045Z,12.01
2022-11-29T16:34:02.113Z,12.02
2022-11-29T16:37:01.558Z,12.02
2022-11-29T16:40:01.456Z,12.01
2022-11-29T16:43:01.959Z,12.01
2022-11-29T16:45:02.124Z,12.01
2022-11-29T16:48:01.446Z,12
2022-11-29T16:50:02.291Z,12.01
2022-11-29T16:54:01.436Z,12.01
2022-11-29T16:56:01.459Z,12
2022-11-29T16:58:01.490Z,11.99
2022-11-29T17:01:02.399Z,11.99
2022-11-29T17:04:01.535Z,11.98
2022-11-29T17:06:01.591Z,11.96
2022-11-29T17:12:01.943Z,11.97
2022-11-29T17:15:08.136Z,11.97
2022-11-29T17:18:01.754Z,11.96
2022-11-29T17:21:01.460Z,11.96
2022-11-29T17:24:01.685Z,11.96
2022-11-29T17:27:02.300Z,11.96
2022-11-29T17:30:01.441Z,11.95
2022-11-29T17:32:01.510Z,11.96
2022-11-29T17:35:01.900Z,11.96
2022-11-29T17:38:01.483Z,11.96
2022-11-29T17:40:01.512Z,11.96
2022-11-29T17:42:02.137Z,11.95
2022-11-29T17:45:01.506Z,11.94
2022-11-29T17:47:02.321Z,11.94
2022-11-29T17:50:00.515Z,11.95
2022-11-29T17:52:01.615Z,11.94
2022-11-29T17:54:02.188Z,11.95
2022-11-29T17:57:01.984Z,11.95
2022-11-29T18:00:01.445Z,11.94
2022-11-29T18:03:01.442Z,11.93
2022-11-29T18:06:01.929Z,11.94
2022-11-29T18:09:01.984Z,11.93
2022-11-29T18:12:01.471Z,11.93
2022-11-29T18:14:01.490Z,11.92
2022-11-29T18:18:00.563Z,11.92
2022-11-29T18:20:08.542Z,11.91
2022-11-29T18:23:14.658Z,11.91
2022-11-29T18:26:08.070Z,11.91
2022-11-29T18:29:02.184Z,11.91
2022-11-29T18:32:02.145Z,11.9
2022-11-29T18:35:01.491Z,11.9
2022-11-29T18:38:15.072Z,11.91
2022-11-29T18:40:02.431Z,11.9
2022-11-29T18:43:01.606Z,11.89
2022-11-29T18:46:01.485Z,11.89
2022-11-29T18:48:02.251Z,11.9
2022-11-29T18:51:01.444Z,11.88
2022-11-29T18:53:01.467Z,11.89
2022-11-29T18:55:01.465Z,11.88
2022-11-29T18:58:01.465Z,11.88
2022-11-29T19:00:02.221Z,11.89
2022-11-29T19:03:01.463Z,11.88
2022-11-29T19:06:01.446Z,11.86
2022-11-29T19:08:01.595Z,11.86
2022-11-29T19:10:02.215Z,11.86
2022-11-29T19:14:01.452Z,11.86
2022-11-29T19:16:01.634Z,11.86
2022-11-29T19:18:02.114Z,11.85
2022-11-29T19:21:01.578Z,11.86
2022-11-29T19:23:01.984Z,11.86
2022-11-29T19:26:01.554Z,11.86
2022-11-29T19:30:01.455Z,11.86
2022-11-29T19:32:02.061Z,11.85
2022-11-29T19:37:02.324Z,11.84
2022-11-29T19:40:01.467Z,11.84
2022-11-29T19:42:02.025Z,11.85
2022-11-29T19:45:16.290Z,11.85
2022-11-29T19:48:01.453Z,11.84
2022-11-29T19:50:02.882Z,11.83
2022-11-29T19:53:01.791Z,11.83
2022-11-29T19:56:01.495Z,11.83
2022-11-29T19:58:01.727Z,11.83
2022-11-29T20:01:02.172Z,11.83
2022-11-29T20:04:01.446Z,11.82
2022-11-29T20:07:01.462Z,11.82
2022-11-29T20:09:01.642Z,11.81
2022-11-29T20:11:02.013Z,11.81
2022-11-29T20:14:01.773Z,11.8
2022-11-29T20:16:02.168Z,11.79
2022-11-29T20:19:02.066Z,11.8
2022-11-29T20:22:01.790Z,11.78
2022-11-29T20:25:01.455Z,11.77
2022-11-29T20:27:01.898Z,11.78
2022-11-29T20:30:01.466Z,11.75
2022-11-29T20:32:02.034Z,11.74
2022-11-29T20:34:02.264Z,11.72
2022-11-29T20:37:08.073Z,11.72
2022-11-29T20:39:08.628Z,11.71
2022-11-29T20:41:21.208Z,11.7
2022-11-29T20:44:08.184Z,11.69
2022-11-29T20:47:08.554Z,11.69
2022-11-29T20:49:08.569Z,11.68
2022-11-29T20:53:02.061Z,11.67
2022-11-29T20:56:01.458Z,11.65
2022-11-29T20:59:08.055Z,11.64
2022-11-29T21:01:08.789Z,11.63
2022-11-29T21:04:01.507Z,11.62
2022-11-29T21:06:02.352Z,11.63
2022-11-29T21:08:02.431Z,11.62
2022-11-29T21:10:08.068Z,11.62
2022-11-29T21:12:08.112Z,11.59
2022-11-29T21:15:01.449Z,11.59
2022-11-29T21:17:01.473Z,11.59
2022-11-29T21:20:01.524Z,11.56
2022-11-29T21:22:01.915Z,11.55
2022-11-29T21:25:01.464Z,11.53
2022-11-29T21:27:01.978Z,11.52
2022-11-29T21:29:02.170Z,11.51
2022-11-29T21:32:01.494Z,11.49
2022-11-29T21:35:01.456Z,11.49
2022-11-29T21:37:08.661Z,11.48
2022-11-29T21:41:02.199Z,11.48
2022-11-29T21:44:07.870Z,11.47
2022-11-29T21:46:01.540Z,11.43
2022-11-29T21:49:08.733Z,11.43
2022-11-29T21:52:01.489Z,11.42
2022-11-29T21:54:01.527Z,11.42
2022-11-29T21:56:02.040Z,11.43
2022-11-29T22:00:05.245Z,11.36
2022-11-29T22:04:05.218Z,11.33
2022-11-29T22:06:05.212Z,11.33
2022-11-29T22:08:05.230Z,11.33
2022-11-29T22:10:15.493Z,11.29
2022-11-29T22:12:32.835Z,11.38
2022-11-29T22:16:05.271Z,11.38
2022-11-29T22:18:05.218Z,11.34
2022-11-29T22:20:05.228Z,11.34
2022-11-29T22:22:15.552Z,11.41
2022-11-29T22:25:05.244Z,11.5
2022-11-29T22:28:05.222Z,11.48
2022-11-29T22:30:05.239Z,11.47
2022-11-29T22:33:08.945Z,11.49
2022-11-29T22:35:05.255Z,11.49
2022-11-29T22:38:05.244Z,11.49
2022-11-29T22:42:05.228Z,11.44
2022-11-29T22:44:15.520Z,11.44
2022-11-29T22:47:05.267Z,11.43
2022-11-29T22:50:05.253Z,11.41
2022-11-29T22:54:05.247Z,11.38
2022-11-29T22:56:15.562Z,11.36
2022-11-29T22:58:15.507Z,11.34
2022-11-29T23:02:05.298Z,11.34
2022-11-29T23:06:05.268Z,11.34
2022-11-29T23:08:15.520Z,11.32
2022-11-29T23:10:15.541Z,11.26
2022-11-29T23:14:05.275Z,11.26
2022-11-29T23:18:05.236Z,11.16
2022-11-29T23:20:15.524Z,11.14
2022-11-29T23:24:05.274Z,11.13
2022-11-29T23:27:05.249Z,11.17
2022-11-29T23:29:05.270Z,11.15
2022-11-29T23:32:05.317Z,11.12
2022-11-29T23:34:05.280Z,11.13
2022-11-29T23:37:05.262Z,11.13
2022-11-29T23:40:05.251Z,11.1
2022-11-29T23:42:05.285Z,11.08
2022-11-29T23:45:05.231Z,11.07
2022-11-29T23:48:05.250Z,11.07
2022-11-29T23:52:05.276Z,11.16
2022-11-29T23:54:15.516Z,11.19
2022-11-29T23:57:05.255Z,11.26
